Lakeside, Missouri
Current Conditions -  °F | °C
As of 4:30 PM on Friday 19 Dec 2014 (Local Time) from KJLN Reporting Station
Haze Haze  
Wind Chill: 39°   Ceiling: 500
Heat Index: 39°   Visibility: 4mi
Dew Point: 38°   Wind: 3mph
Humidity: 96%   Direction: 320°NW
Pressure: 30.2"   Gusts: NA
Location:  37.1074°N, 94.5218°W
Report Text: KJLN 192230Z 32003KT 4SM BR OVC005 04/03 A3020 RMK AO2 T00390033
Loading
Personal Weather Stations






























Interactive Weather Map New forecast layout! Learn more

10-Day Weather Forecast

Advertisements
Track Severe Weather on mobile